Latest METARs, TAFs and NOTAMs for EGGW


---------------------------------------------------------------------------
	(OBSERVATIONS)
EGGW 300050Z AUTO 12013KT 9999 NCD 09/04 Q1009=
EGGW 300020Z AUTO 11013KT 9999 NCD 09/04 Q1009=
EGGW 292350Z AUTO 12012KT 9999 NCD 09/05 Q1009=
EGGW 292320Z AUTO 11009KT 9999 NCD 09/05 Q1010=
EGGW 292250Z AUTO 11008KT 9999 NCD 08/06 Q1010=
EGGW 292220Z AUTO 10008KT 9000 NCD 08/06 Q1010=
---------------------------------------------------------------------------
	(FC)
Sorry, FC For EGGW Not Found
---------------------------------------------------------------------------
	(TERMINAL AREA FORECAST)
EGGW 292300Z 3000/3024 11012KT 9999 FEW040
    PROB30 TEMPO 3000/3006 13015G25KT
    TEMPO 3009/3014 13016G26KT
    TEMPO 3014/3024 7000 RA
    PROB40 TEMPO 3018/3024 4000 +SHRA BKN008=
---------------------------------------------------------------------------
	(NOTAMS)


EGGW A0464/17 NO AD HOC PARKING AVAILABLE EXCEPT FOR AIRCRAFT
    OPERATING THROUGH GA TERMINALS. 2200-0659, 26 MAR 22:00 2017
    UNTIL 01 MAY 06:59 2017. CREATED: 09 FEB 15:19 2017

EGGW A0716/17 COMPASS SWING BASE AND HOLDING POINT Q1 CLOSED
    DUE AIRPORT EXPANSION WORKS. 28 FEB 23:59 2017 UNTIL 29 MAY
    00:00 2017. CREATED: 28 FEB 14:17 2017

EGGW A0985/17 ANY UNPLANNED AIRCRAFT PLANNING TO TRANSIT THROUGH
    OR DEPART/ARRIVE FROM SITES WITHIN THE LUTON CTA/CTR BOUNDARIES
    MAY FIND THEIR SERVICE IMPACTED DUE TO CONTROLLER WORKLOAD
    ASSOCIATED WITH TESTING NEW ATC EQUIPMENT AT LONDON CONTROL
    (SWANWICK). AFFECTED CREW ARE ENCOURAGED TO CALL THE LONDON
    TERMINAL CONTROL SWANWICK (02380 401 102/02380 401 110) BEFORE
    COMMENCING THEIR FLIGHT TO OFFER APPROPRIATE FLIGHT DETAILS
    IN ORDER TO REDUCE THE CHANCES OF REFUSAL/DELAY IN THE AIR.
    23 MAR 00:01 2017 UNTIL 20 JUN 23:59 2017. CREATED: 21 MAR
    11:57 2017

EGGW A1101/17 DUE WIP NO LIT CENTRELINE ON TWY IN THE A7-B1-A6
    JUNCTION. SUPPLEMENTARY BLUE EDGE AND PAINTED CENTRELINE
    ARE PROVIDED. 28 MAR 14:00 2017 UNTIL 31 MAY 23:59 2017.
    CREATED: 28 MAR 14:00 2017

EGGW A1110/17 BRAVO TWY AND ALPHA TWY BETWEEN A6 AND A7 CLOSED
    DUE WIP. MON-FRI 2100-0400, 29 MAR 21:00 2017 UNTIL 31 MAY
    04:00 2017. CREATED: 29 MAR 15:37 2017

EGGW A1120/17 ILS RWY 08/26 MAYBE UNAVAILABLE DUE WIP. DURING
    WIP RWY 08/26 WILL BE DOWNGRADED TO VISUAL RWY ONLY. SUBJECT
    WEATHER. MON-FRI 0630-1600, 30 MAR 08:15 2017 UNTIL 01 MAY
    16:00 2017. CREATED: 30 MAR 08:16 2017

EGGW A1139/17 3 LIGHTS OUT OF SERVICE ON THIRD BAR OF RWY 26
    HIGH INTENSITY APCH LIGHTS. 31 MAR 10:38 2017 UNTIL 19 MAY
    23:59 2017. CREATED: 31 MAR 10:39 2017

EGGW A1143/17 AIRFIELD CLOSED TO ALL AIRCRAFT MOVEMENTS DUE WIP.
    0001-0530, 06 NOV 00:01 2017 UNTIL 16 DEC 05:30 2017. CREATED:
    31 MAR 15:26 2017

EGGW A1166/17 AD CLOSED TO ALL MOVEMENTS DUE TO ANNUAL AIRFIELD
    INSPECTION. 23 JUN 02:55 2017 UNTIL 23 JUN 04:00 2017. CREATED:
    03 APR 13:20 2017

EGGW A1172/17 TWY BRAVO AND TWY ALPHA BETWEEN B1 TO A5 MAY AT
    TIMES BE REDUCED TO CODE C STRIP DUE WIP. DURING THIS PERIOD
    CODE D AND E AIRCRAFT WILL BE PROVIDED A FOLLOW ME WHEN REQUIRED.
    04 APR 09:00 2017 UNTIL 01 JUL 05:00 2017. CREATED: 04 APR
    09:29 2017

EGGW A1275/17 AD CLOSED TO ALL MOVEMENTS DUE WIP. 0001-0530,
    06 JAN 00:01 2018 UNTIL 14 JAN 05:30 2018. CREATED: 12 APR
    13:23 2017

EGGW A1396/17 AD CLOSED TO ALL AIRCRAFT MOVEMENTS DUE TO ANNUAL
    RUNWAY INSPECTION. 30 JUN 02:55 2017 UNTIL 30 JUN 04:00 2017.
    CREATED: 25 APR 14:10 2017

EGGW A1434/17 NO AD HOC PARKING AVAILABLE EXCEPT FOR AIRCRAFT
    OPERATING THROUGH GA TERMINALS. 2200-0659, 01 MAY 22:00 2017
    UNTIL 01 JUN 06:59 2017. CREATED: 28 APR 17:16 2017

EGGW H1204/17 FLYPAST BY BATTLE OF BRITAIN MEMORIAL FLIGHT ACFT
    WI 3NM RADIUS 515104N 0001736W (KIMPTON, HERTFORDSHIRE).
    17-04-0138/AS1. SFC - 2300FT AMSL, 30 APR 12:40 2017 UNTIL
    30 APR 13:20 2017. CREATED: 28 MAR 12:38 2017

---------------------------------------------------------------------------